Juan Cabrera

Recruteur - Instituto
20 Nov 2027
Samedi
Processus

Personnalité

Adaptabilité (1) Ambition (12) Controverse (8) Loyauté (13) Pression (16) Professionnalisme (8) Sportivité (5) Tempérament (19)

Profil

Style d'entraînement Démocratique
Diplôme Continental B
Détermination 11
Gestion des joueurs 4
Motivation 11
Discipline 4
Satisfaction professionnelle
100%
Fatigue
0%
Rôle Recruteur
Salaire 23.8K p/s
Contrat 14.03.2028

Performance

Comportement Bon
Efficacité de l'entraînement
26%
Développement des joueurs
35%
Prévention des blessures
55%
Mise en place tactique
35%

Événements récents

A participé à une réunion de recrutement 7j
A participé à une réunion de recrutement 14j
A participé à une réunion de recrutement 21j
A participé à une réunion de recrutement 28j
A participé à une réunion de recrutement 35j
A participé à une réunion de recrutement 42j
A participé à une réunion de recrutement 49j
A participé à une réunion de recrutement 56j

Suivi en cours

142
Joueur Club Statut Capacité Confiance Observé Dernière observation Dernier vote
Facundo Di Biasi Getafe Actif 116 / 133 40% 2 30.05.2027 -
Oscar Schwartau Norwich City Actif 130 / 134 40% 3 28.05.2027 -
Sebastián Mella Huachipato Actif 95 / 96 40% 2 25.05.2027 -
Ignacio Roldán Lanús Actif 96 / 104 40% 1 25.05.2027 -
Juan David Arizala Udinese Actif 118 / 119 40% 1 24.05.2027 -
Ricardo Solbes Getafe Actif 90 / 106 40% 2 14.05.2027 -
Bazoumana Touré Newcastle United Actif 129 / 149 40% 1 14.05.2027 -
Ignacio Abarza Huracán Actif 98 / 86 40% 1 13.05.2027 -
Sidiki Chérif Coventry City Actif 132 / 130 40% 2 12.05.2027 -
Tommaso Orsini Sambenedettese Actif 106 / 109 40% 3 11.05.2027 -
Iván Díaz Millonarios Actif 81 / 77 40% 1 11.05.2027 -
José Luis Torres Boston River Actif 82 / 93 40% 2 05.05.2027 -
Jerónimo Gutiérrez Independiente Rivadavia Actif 91 / 105 40% 1 05.05.2027 -
Lisandro Tejada San Martín SJ Actif 84 / 97 40% 1 01.05.2027 -
Pedro Ramallo Albion Actif 71 / 98 40% 1 01.05.2027 -
Giovanni Stellato Guidonia Montecelio Actif 97 / 83 40% 2 30.04.2027 -
Sam Curtis Swindon Town Actif 103 / 111 40% 2 29.04.2027 -
Manuel Idiarte Juventud Actif 85 / 92 40% 1 27.04.2027 -
Ramiro Buratti River Plate Actif 90 / 106 40% 1 27.04.2027 -
Lucio Latorre Granada Actif 85 / 100 40% 3 26.04.2027 -
Jorman Mendoza Envigado Actif 77 / 101 40% 1 26.04.2027 -
Duván Córdoba Leones Actif 88 / 102 40% 1 25.04.2027 -
Christos Mouzakitis Hull City Actif 139 / 135 40% 1 20.04.2027 -
Erico Cuello Defensor Sporting Actif 109 / 100 40% 1 19.04.2027 -
Sebastián Flores Rayo Vallecano Actif 100 / 118 40% 1 19.04.2027 -
Yaw Adjei Hasaacas Actif 71 / 69 40% 1 14.04.2027 -
Jonathan De Irastorza Levante Actif 124 / 132 40% 2 13.04.2027 -
Borna Knezović Casarano Actif 95 / 104 40% 1 13.04.2027 -
Mfundo Vilakazi Kaizer Chiefs Actif 124 / 103 40% 2 11.04.2027 -
André Miranda Porto Actif 90 / 104 40% 1 11.04.2027 -
Othmane Maamma Watford Actif 132 / 121 40% 3 09.04.2027 -
Sebastián Alarcón Deportivo Cali Actif 77 / 80 40% 1 08.04.2027 -
Martín D'Aurizio Huracán Actif 101 / 88 40% 1 06.04.2027 -
Luis Marquínez Deportivo Pasto Actif 71 / 76 40% 2 05.04.2027 -
Luis Mateus Atletico Bucaramanga Actif 74 / 89 40% 1 05.04.2027 -
Tiago Glattli Penarol Actif 71 / 85 40% 2 04.04.2027 -
Alejandro Rojo Deportivo Cali Actif 87 / 85 40% 1 04.04.2027 -
Zack Nelson Walsall Actif 101 / 98 40% 1 03.04.2027 -
Marcos Arias Deportivo Municipal Actif 89 / 81 40% 1 02.04.2027 -
Shea Lacey Millwall Actif 125 / 127 40% 2 01.04.2027 -
Manu Rodríguez Gijón Actif 105 / 119 40% 1 31.03.2027 -
Gladson Sulemana Liberty Professionals Actif 109 / 95 40% 1 31.03.2027 -
Joel Orlando Real Sociedad Actif 117 / 123 40% 1 29.03.2027 -
Lautaro Gutiérrez Girona Actif 109 / 116 40% 1 29.03.2027 -
Edwin Asamoah Berekum Chelsea Actif 83 / 103 40% 1 27.03.2027 -
Jhefferson Rodríguez Universitario Actif 88 / 102 40% 1 20.03.2027 -
Joaquín Giudice Platense Actif 86 / 101 40% 1 17.03.2027 -
Monty Batlhabane Polokwane City Actif 103 / 114 40% 1 15.03.2027 -
Jeremías Merlo AC Milan Actif 127 / 127 40% 3 13.03.2027 -
Ignacio Perruzzi Celta Actif 126 / 118 40% 1 13.03.2027 -
Matías Villa Envigado Actif 79 / 101 40% 1 08.03.2027 -
Fabricio Díaz San Lorenzo Actif 97 / 98 40% 1 08.03.2027 -
Asanele Bonani Chippa United Actif 103 / 104 40% 1 05.03.2027 -
Joel Abraham Boston River Actif 87 / 83 40% 2 01.03.2027 -
Nicolás Casa Deportivo Pereira Actif 87 / 81 40% 1 01.03.2027 -
Ignacio Coscio Zaragoza Actif 98 / 89 40% 2 27.02.2027 -
Yolvis Humanes Union Magdalena Actif 87 / 77 40% 1 27.02.2027 -
Thiago Perruisset Boca Juniors Actif 99 / 104 40% 1 19.02.2027 -
Kevin Lezcano Guarani Actif 82 / 81 40% 1 11.02.2027 -
Ognjen Bondžulić Mladost Lucani Actif 113 / 99 40% 1 06.02.2027 -
Luke Baartman Bidvest Wits Actif 96 / 118 40% 1 06.02.2027 -
Nicolás Azambuja Danubio Actif 103 / 136 40% 1 03.02.2027 -
Juan Esteban Gómez Atletico Nacional Actif 78 / 78 40% 1 02.02.2027 -
Íker Blanco Independiente Medellin Actif 91 / 89 40% 1 02.02.2027 -
Rodrigo Villalba Libertad Actif 87 / 95 40% 1 01.02.2027 -
Santino Sciacqua Colón Actif 90 / 94 51% 1 28.12.2026 -
Nicolás Cordero Aldosivi Actif 117 / 109 40% 1 29.11.2026 -
Alan Marinelli Sparta Prague Actif 93 / 122 40% 1 29.11.2026 -
Luca Langoni New England Revolution Actif 147 / 129 40% 2 28.11.2026 -
Tommy Conway Middlesbrough Actif 129 / 128 40% 1 28.11.2026 -
Joaquín García Vélez Actif 120 / 138 40% 1 28.11.2026 -
Antony Alonso Deportivo Riestra Actif 114 / 133 40% 1 21.11.2026 -
Agustín Kahl Racing Actif 112 / 100 40% 2 20.11.2026 -
Max Bird Birmingham Actif 142 / 126 40% 1 20.11.2026 -
Enzo Cabrera AE Kition Actif 119 / 110 40% 1 18.11.2026 -
Relebohile Mofokeng Orlando Pirates Actif 121 / 127 40% 1 16.11.2026 -
Nicolás Garayalde Liverpool Montevideo Actif 109 / 121 40% 2 14.11.2026 -
Joaquín Gho Argentinos Juniors Actif 136 / 124 40% 2 13.11.2026 -
Tadeo Allende Inter Miami CF Actif 125 / 132 40% 2 12.11.2026 -
Fernando Mimbacas Juventud Actif 112 / 103 40% 4 12.11.2026 -
Matías Contrera Northampton Town Actif 95 / 100 40% 1 11.11.2026 -
Nicolás Romero Minnesota United FC Actif 132 / 138 40% 2 09.11.2026 -
Ammar Ramadan DAC Dunajska Streda Actif 127 / 134 40% 1 08.11.2026 -
Luca Martínez Dupuy Godoy Cruz Actif 118 / 124 40% 1 08.11.2026 -
Agustín Paz Progreso Actif 114 / 123 40% 1 05.11.2026 -
Camilo Durán Bloemfontein Celtic Actif 107 / 115 40% 1 05.11.2026 -
Emiliano Álvarez Progreso Actif 117 / 120 40% 1 05.11.2026 -
Santiago Pierotti Lecce Actif 122 / 139 40% 1 01.11.2026 -
Nicolás González Plaza Colonia Actif 111 / 111 40% 1 01.11.2026 -
Luciano Boggio Nacional Actif 115 / 111 40% 1 01.11.2026 -
Ignacio Schor O'Higgins Actif 120 / 114 40% 1 01.11.2026 -
Mateo Mendoza Godoy Cruz Actif 118 / 134 40% 2 29.10.2026 -
Elías Báez Atlanta United FC Actif 117 / 127 40% 2 29.10.2026 -
Joaquín Zeballos Wanderers Actif 101 / 111 40% 1 29.10.2026 -
Yousef Salech Cardiff City Actif 117 / 120 40% 1 25.10.2026 -
Enzo Loiodice KAA Gent Actif 136 / 134 40% 1 25.10.2026 -
Joaquín Pereyra Minnesota United FC Actif 115 / 127 40% 1 24.10.2026 -
Julián Brea Cobresal Actif 111 / 92 40% 2 22.10.2026 -
Maicol Ferreira Danubio Actif 113 / 112 40% 1 22.10.2026 -
Pablo Ruiz Real Salt Lake Actif 125 / 125 40% 1 22.10.2026 -
Marc Pubill Atlético Madrid Actif 154 / 137 40% 2 21.10.2026 -
Martín Ojeda Orlando City Actif 139 / 147 40% 3 17.10.2026 -
Mateo Silvetti Inter Miami CF Actif 123 / 128 40% 1 17.10.2026 -
Tomás Chancalay Minnesota United FC Actif 143 / 112 40% 1 17.10.2026 -
Bautista Tomatis Racing Actif 118 / 120 40% 1 14.10.2026 -
Jonatan Torres Cerro Porteno Actif 115 / 118 40% 1 13.10.2026 -
Tiziano Dornell Almagro Actif 104 / 130 40% 1 13.10.2026 -
Rodrigo González Aldosivi Actif 128 / 126 40% 1 09.10.2026 -
Esequiel Barco Spartak Moscow Actif 141 / 128 40% 1 08.10.2026 -
Ramiro Peralta Juventud Actif 118 / 123 40% 1 06.10.2026 -
Alan Lescano Argentinos Juniors Actif 138 / 135 40% 1 06.10.2026 -
Facundo de León Progreso Actif 93 / 110 40% 1 04.10.2026 -
Lucas Di Yorio Santos Laguna Actif 108 / 102 40% 1 04.10.2026 -
Hugo Cuypers Monterrey Actif 119 / 137 40% 1 02.10.2026 -
Adrián Parra Deportes Tolima Actif 128 / 119 40% 2 01.10.2026 -
Bautista Arricau Audax Italiano Actif 111 / 98 40% 1 01.10.2026 -
Aarón Mejía Tijuana Actif 109 / 132 40% 2 30.09.2026 -
Kevin Álvarez Club America Actif 135 / 134 40% 2 30.09.2026 -
Lucas Agazzi Defensor Sporting Actif 107 / 120 40% 1 29.09.2026 -
Juan Manuel Sanabria Real Salt Lake Actif 144 / 134 40% 1 29.09.2026 -
David Arias Cortulua Actif 131 / 133 40% 1 28.09.2026 -
Jefry Zapata Once Caldas Actif 129 / 115 40% 3 27.09.2026 -
Mauro Valiente Chiapas Actif 134 / 127 40% 1 27.09.2026 -
César Ibáñez Huracán Actif 133 / 122 40% 1 25.09.2026 -
Diego Rossi Monterrey Actif 124 / 145 40% 1 22.09.2026 -
Santiago González Tigre Actif 118 / 124 40% 1 20.09.2026 -
Nahuel Sena Cerro Actif 103 / 92 40% 1 19.09.2026 -
Augusto Schott Talleres Actif 108 / 121 40% 1 19.09.2026 -
Tomás Escalante Plaza Colonia Actif 116 / 117 40% 1 19.09.2026 -
Jermein Peña Junior Actif 112 / 113 40% 1 16.09.2026 -
César Araújo Tigres Actif 114 / 126 40% 1 15.09.2026 -
Jan Carlos Ángulo Deportes Tolima Actif 116 / 120 40% 1 11.09.2026 -
Facundo Batista Penarol Actif 104 / 112 40% 1 10.09.2026 -
Tobías Reinhart Universidad de Chile Actif 106 / 120 40% 1 09.09.2026 -
Alejandro Piedrahita Deportivo Pereira Actif 131 / 129 40% 1 06.09.2026 -
Leandro Suhr Piast Actif 132 / 136 40% 1 06.09.2026 -
Alejo Cruz Juventud Actif 126 / 130 40% 2 05.09.2026 -
Jorge Obregón Deportivo Pasto Actif 121 / 115 40% 1 05.09.2026 -
Federico Girotti Alianza Lima Actif 110 / 133 40% 1 29.08.2026 -
Diego Sánchez Progreso Actif 89 / 114 40% 1 18.08.2026 -
Agustín Venezia Iquique Actif 116 / 115 40% 1 12.08.2026 -
Juan Moreira Rentistas Actif 113 / 107 40% 1 08.08.2026 -